Time;durP1;ratioP1;P1;durP2;ratioP2;P2;SDS_P1;SDS_P2;PMS_P1;PMS_P2;Temp;Humidity;BMP_temperature;BMP_pressure;BME280_temperature;BME280_humidity;BME280_pressure;Samples;Min_cycle;Max_cycle;Signal;HPM_P1;HPM_P2
2022/10/05 00:01:34;;;;;;;226.18;15.52;;;;;;;8.38;68.09;100351.28;10397313;28;20056;-81
2022/10/05 00:06:36;;;;;;;243.30;14.48;;;;;;;8.29;68.54;100357.75;10396748;28;20096;-81
2022/10/05 00:11:37;;;;;;;435.27;19.50;;;;;;;8.39;68.72;100342.53;10422451;28;20053;-81
2022/10/05 00:16:39;;;;;;;308.90;13.73;;;;;;;8.32;68.81;100348.94;10402452;28;20812;-80
2022/10/05 00:21:41;;;;;;;239.48;11.90;;;;;;;8.31;69.21;100350.72;10403167;28;20057;-81
2022/10/05 00:26:42;;;;;;;451.90;20.08;;;;;;;8.51;68.56;100339.38;10402867;28;20048;-81
2022/10/05 00:31:45;;;;;;;190.93;17.02;;;;;;;8.62;68.25;100344.97;10402693;28;20422;-81
2022/10/05 00:36:46;;;;;;;326.73;18.75;;;;;;;8.65;68.14;100339.59;10419128;28;20456;-81
2022/10/05 00:42:09;;;;;;;122.60;10.57;;;;;;;8.60;68.47;100339.84;10421208;28;20064;-81
2022/10/05 00:47:14;;;;;;;178.80;12.20;;;;;;;8.72;68.28;100354.06;10417855;28;21270;-81
2022/10/05 00:52:48;;;;;;;280.38;20.92;;;;;;;8.67;68.36;100353.41;10417444;28;20065;-81
2022/10/05 00:58:27;;;;;;;406.00;22.67;;;;;;;8.61;68.38;100358.91;10415832;28;20049;-81
2022/10/05 01:03:45;;;;;;;362.05;20.00;;;;;;;8.66;68.40;100349.13;10401185;28;20068;-81
2022/10/05 01:08:49;;;;;;;316.80;16.80;;;;;;;8.67;68.56;100353.41;10401827;28;20049;-81
2022/10/05 01:14:03;;;;;;;547.30;19.08;;;;;;;8.77;68.67;100339.91;10400572;28;20057;-81
2022/10/05 01:19:18;;;;;;;360.60;15.15;;;;;;;8.69;68.88;100333.34;10398915;28;20057;-81
2022/10/05 01:24:29;;;;;;;319.25;17.90;;;;;;;8.69;69.15;100326.38;10399191;28;20048;-81
2022/10/05 01:29:40;;;;;;;747.15;28.08;;;;;;;8.56;68.86;100311.38;10418631;28;20094;-81
2022/10/05 01:35:06;;;;;;;280.58;13.35;;;;;;;8.43;69.16;100298.03;10398437;28;20049;-81
2022/10/05 01:40:46;;;;;;;364.67;19.35;;;;;;;8.42;69.18;100285.94;10400788;28;20556;-80
2022/10/05 01:45:57;;;;;;;410.80;19.70;;;;;;;8.30;69.34;100280.44;10400588;28;20053;-81
2022/10/05 01:51:17;;;;;;;405.15;17.50;;;;;;;8.28;69.25;100277.88;10399032;28;20064;-81
2022/10/05 01:56:28;;;;;;;273.10;13.55;;;;;;;8.39;69.18;100267.81;10398150;28;20970;-81
2022/10/05 02:01:54;;;;;;;324.10;16.73;;;;;;;8.56;68.68;100251.41;10415419;28;20492;-80
2022/10/05 02:06:57;;;;;;;718.88;26.70;;;;;;;8.40;68.36;100245.22;10404627;28;20427;-80
2022/10/05 02:12:06;;;;;;;227.32;11.70;;;;;;;8.33;68.84;100265.50;10422773;28;20056;-81
2022/10/05 02:17:34;;;;;;;199.77;15.20;;;;;;;8.48;68.71;100258.75;10402903;28;20053;-80
2022/10/05 02:22:45;;;;;;;274.27;17.92;;;;;;;8.62;68.80;100278.03;10420384;28;20056;-80
2022/10/05 02:27:54;;;;;;;86.35;8.70;;;;;;;8.70;68.67;100270.72;10404132;28;20064;-80
2022/10/05 02:33:28;;;;;;;441.45;18.70;;;;;;;8.55;68.36;100274.03;10421566;28;20509;-81
2022/10/05 02:39:04;;;;;;;172.93;9.85;;;;;;;8.45;68.57;100288.38;10420492;28;20050;-80
2022/10/05 02:44:15;;;;;;;401.40;17.40;;;;;;;8.33;68.83;100280.28;10405444;28;20064;-81
2022/10/05 02:49:48;;;;;;;406.42;19.98;;;;;;;8.41;68.84;100296.41;10401723;28;20057;-81
2022/10/05 02:55:19;;;;;;;402.52;18.13;;;;;;;8.51;68.80;100298.53;10403592;28;20056;-80
2022/10/05 03:00:24;;;;;;;463.02;21.25;;;;;;;8.66;68.28;100295.25;10403065;28;20050;-80
2022/10/05 03:05:52;;;;;;;459.65;15.32;;;;;;;8.50;68.53;100290.78;10398295;28;20049;-81
2022/10/05 03:11:03;;;;;;;469.90;26.80;;;;;;;8.26;69.00;100289.28;10397324;28;20046;-80
2022/10/05 03:16:23;;;;;;;332.33;13.35;;;;;;;8.17;69.30;100306.19;10412951;28;20060;-81
2022/10/05 03:21:43;;;;;;;402.88;16.92;;;;;;;8.30;69.01;100291.69;10412987;28;20519;-80
2022/10/05 03:26:57;;;;;;;308.27;13.93;;;;;;;8.27;69.15;100285.75;10396861;28;20060;-80
2022/10/05 03:32:08;;;;;;;690.97;28.98;;;;;;;8.18;69.06;100281.78;10411016;28;20061;-80
2022/10/05 03:37:20;;;;;;;504.88;17.45;;;;;;;8.12;69.55;100270.81;10414005;28;20045;-80
2022/10/05 03:42:40;;;;;;;256.77;12.73;;;;;;;8.13;69.33;100280.31;10395511;28;20057;-80
2022/10/05 03:48:15;;;;;;;319.85;12.70;;;;;;;8.18;69.07;100288.78;10401491;28;20056;-81
2022/10/05 03:53:20;;;;;;;313.33;13.93;;;;;;;8.26;69.34;100294.50;10411096;28;20057;-81
2022/10/05 03:58:40;;;;;;;273.00;12.95;;;;;;;8.26;69.01;100294.50;10420800;28;20064;-80
2022/10/05 04:03:56;;;;;;;60.63;8.90;;;;;;;8.24;69.06;100293.72;10422316;28;20131;-80
2022/10/05 04:09:30;;;;;;;187.40;15.05;;;;;;;8.13;68.78;100288.97;10420936;28;20072;-80
2022/10/05 04:14:45;;;;;;;61.50;9.23;;;;;;;8.21;68.88;100293.84;10421398;28;20061;-80
2022/10/05 04:19:57;;;;;;;17.45;7.90;;;;;;;8.30;68.73;100293.47;10403219;28;20628;-80
2022/10/05 04:25:13;;;;;;;18.88;7.18;;;;;;;8.35;68.49;100281.03;10422653;28;20057;-80
2022/10/05 04:30:19;;;;;;;18.92;8.75;;;;;;;8.24;68.66;100276.31;10406634;28;20057;-81
2022/10/05 04:35:26;;;;;;;14.57;7.57;;;;;;;8.29;68.61;100274.38;10402355;28;20045;-80
2022/10/05 04:40:48;;;;;;;14.15;8.55;;;;;;;8.07;68.06;100273.59;10403165;28;20072;-80
2022/10/05 04:46:08;;;;;;;11.93;7.60;;;;;;;7.96;68.91;100288.84;10402179;28;20052;-80
2022/10/05 04:51:28;;;;;;;9.32;6.50;;;;;;;8.10;68.39;100291.72;10405280;28;20072;-80
2022/10/05 04:56:37;;;;;;;18.42;6.65;;;;;;;8.16;68.21;100275.00;10421194;28;20065;-80
2022/10/05 05:02:12;;;;;;;10.40;6.65;;;;;;;8.02;68.40;100279.00;10400662;28;20053;-81
2022/10/05 05:07:35;;;;;;;17.08;6.97;;;;;;;7.96;68.75;100292.28;10402428;28;20145;-80
2022/10/05 05:13:14;;;;;;;186.30;13.88;;;;;;;7.92;68.80;100293.34;10421104;28;20063;-80
2022/10/05 05:18:38;;;;;;;21.10;6.40;;;;;;;7.88;68.88;100293.53;10419934;28;20057;-80
2022/10/05 05:23:48;;;;;;;60.58;9.75;;;;;;;8.01;68.83;100285.13;10417535;28;20056;-81
2022/10/05 05:29:04;;;;;;;22.57;7.30;;;;;;;8.03;68.55;100288.53;10416464;28;20503;-80
2022/10/05 05:34:27;;;;;;;8.65;6.25;;;;;;;8.03;68.79;100292.88;10418192;28;20053;-80
2022/10/05 05:39:51;;;;;;;7.22;5.57;;;;;;;8.11;68.59;100284.75;10401303;28;20048;-80
2022/10/05 05:44:56;;;;;;;6.85;5.65;;;;;;;8.25;68.39;100293.66;10416333;28;20049;-80
2022/10/05 05:50:31;;;;;;;8.95;5.05;;;;;;;8.27;68.38;100294.44;10416614;28;20053;-80
2022/10/05 05:55:43;;;;;;;6.90;4.97;;;;;;;8.48;67.94;100290.00;10415488;28;20063;-79
2022/10/05 06:00:51;;;;;;;7.13;4.90;;;;;;;8.58;67.90;100271.28;10400979;28;20049;-80
2022/10/05 06:06:00;;;;;;;8.93;6.03;;;;;;;8.63;67.78;100274.50;10399433;28;20151;-81
2022/10/05 06:11:10;;;;;;;8.65;5.82;;;;;;;8.77;67.60;100276.50;10397865;28;20057;-80
2022/10/05 06:16:11;;;;;;;10.23;5.53;;;;;;;8.77;67.91;100285.13;10416119;28;20050;-80
2022/10/05 06:21:24;;;;;;;7.07;5.50;;;;;;;8.87;67.55;100288.19;10398347;28;20406;-80
2022/10/05 06:26:47;;;;;;;8.05;4.70;;;;;;;8.82;67.50;100285.78;10400329;28;20049;-80
2022/10/05 06:32:04;;;;;;;9.93;5.85;;;;;;;8.80;67.44;100286.75;10400248;28;20114;-81
2022/10/05 06:37:16;;;;;;;6.28;4.72;;;;;;;8.94;67.42;100286.97;10399979;28;20052;-80
2022/10/05 06:42:18;;;;;;;8.60;5.90;;;;;;;9.14;67.17;100288.59;10398130;28;20075;-80
2022/10/05 06:47:33;;;;;;;10.27;6.45;;;;;;;9.35;66.44;100284.97;10401028;28;20053;-80
2022/10/05 06:52:57;;;;;;;11.50;6.97;;;;;;;9.49;66.39;100282.50;10415737;28;20052;-81
2022/10/05 06:58:36;;;;;;;9.63;6.10;;;;;;;9.43;66.29;100283.69;10398922;28;20057;-81
2022/10/05 07:04:06;;;;;;;8.85;6.55;;;;;;;9.51;66.17;100281.53;10413665;28;20049;-80
2022/10/05 07:09:13;;;;;;;10.05;7.15;;;;;;;9.60;66.09;100278.47;10415567;28;20046;-81
2022/10/05 07:14:50;;;;;;;14.35;6.95;;;;;;;9.86;65.85;100265.88;10398454;28;20060;-81
2022/10/05 07:20:13;;;;;;;11.95;6.75;;;;;;;10.15;64.70;100278.28;10301735;28;20060;-80
2022/10/05 07:25:37;;;;;;;11.85;6.10;;;;;;;10.28;64.96;100271.47;10406335;28;20061;-80
2022/10/05 07:31:08;;;;;;;9.52;6.60;;;;;;;10.52;64.43;100272.78;10421120;28;20476;-81
2022/10/05 07:42:17;;;;;;;14.20;7.10;;;;;;;10.80;64.01;100267.72;10375947;28;20052;-81
2022/10/05 07:47:48;;;;;;;10.07;6.78;;;;;;;10.76;64.24;100266.22;10417602;28;20561;-80
2022/10/05 07:53:18;;;;;;;12.23;7.23;;;;;;;11.39;63.37;100255.69;10421750;28;20053;-80
2022/10/05 07:59:00;;;;;;;16.27;7.20;;;;;;;11.88;62.03;100254.47;10404515;28;20051;-81
2022/10/05 08:04:28;;;;;;;10.55;6.68;;;;;;;11.98;62.01;100260.84;10392705;28;20049;-80
2022/10/05 08:10:23;;;;;;;;;;;;;;;;;;;;;
2022/10/05 08:16:15;;;;;;;10.95;8.10;;;;;;;12.39;61.49;100245.25;10313744;28;20136;-80
2022/10/05 08:21:59;;;;;;;12.23;7.55;;;;;;;12.45;61.65;100250.09;10423560;28;21104;-80
2022/10/05 08:27:25;;;;;;;10.77;7.45;;;;;;;12.58;61.54;100251.84;10420432;28;20048;-78
2022/10/05 08:32:33;;;;;;;13.25;8.93;;;;;;;12.47;61.66;100241.22;10414102;28;20612;-78
2022/10/05 08:37:40;;;;;;;11.82;7.65;;;;;;;12.56;61.61;100248.50;10415620;28;20053;-78
2022/10/05 08:43:07;;;;;;;13.63;9.43;;;;;;;12.66;61.80;100257.47;10403506;28;20064;-78
2022/10/05 08:48:37;;;;;;;14.60;8.45;;;;;;;12.87;61.16;100248.25;10400176;28;20041;-78
2022/10/05 08:54:06;;;;;;;12.82;9.07;;;;;;;13.05;60.60;100254.06;10395400;28;20050;-78
2022/10/05 08:59:14;;;;;;;14.07;8.45;;;;;;;13.30;60.94;100248.06;10415696;28;20057;-78
2022/10/05 09:04:38;;;;;;;16.15;8.98;;;;;;;13.54;60.41;100251.72;10414043;28;20059;-78
2022/10/05 09:10:10;;;;;;;14.43;9.68;;;;;;;13.82;60.37;100234.94;10400404;28;20053;-78
2022/10/05 09:15:30;;;;;;;12.25;9.43;;;;;;;13.91;59.92;100232.53;10414703;28;20149;-78
2022/10/05 09:20:49;;;;;;;12.32;9.93;;;;;;;14.33;59.54;100236.59;10400582;28;20056;-78
2022/10/05 09:26:26;;;;;;;14.05;9.07;;;;;;;14.50;59.47;100233.66;10395092;28;20392;-78
2022/10/05 09:31:45;;;;;;;10.98;7.78;;;;;;;14.84;59.52;100229.44;10413356;28;20553;-78
2022/10/05 09:36:54;;;;;;;11.83;8.73;;;;;;;15.17;58.88;100217.28;10416804;28;20454;-78
2022/10/05 09:42:43;;;;;;;12.38;8.52;;;;;;;15.55;57.98;100211.78;10397503;28;20060;-78
2022/10/05 09:48:03;;;;;;;13.80;9.10;;;;;;;15.50;57.79;100202.53;10355807;28;20920;-78
2022/10/05 09:53:39;;;;;;;11.30;8.05;;;;;;;15.62;58.24;100196.34;10400575;28;20056;-78
2022/10/05 09:59:07;;;;;;;10.90;7.72;;;;;;;15.96;58.13;100196.25;10416083;28;20046;-78
2022/10/05 10:04:25;;;;;;;;;;;;;;;16.05;58.42;100186.81;10419705;28;22279;-73
2022/10/05 10:09:51;;;;;;;7.78;5.97;;;;;;;16.65;57.14;100186.41;10420299;28;19932;-72
2022/10/05 10:15:27;;;;;;;7.45;4.10;;;;;;;16.98;55.96;100179.22;10421402;28;20072;-72
2022/10/05 10:21:04;;;;;;;6.43;3.42;;;;;;;17.22;56.66;100178.16;10419441;28;20258;-73
2022/10/05 10:26:17;;;;;;;6.32;3.30;;;;;;;17.37;56.16;100172.44;10365961;28;20417;-72
2022/10/05 10:31:34;;;;;;;6.53;3.90;;;;;;;17.30;54.82;100165.94;10419404;28;20045;-72
2022/10/05 10:37:12;;;;;;;5.53;3.97;;;;;;;17.29;56.11;100169.56;10419536;28;20045;-72
2022/10/05 10:42:33;;;;;;;4.90;3.63;;;;;;;17.58;55.24;100162.72;10417157;28;20064;-73
2022/10/05 10:47:34;;;;;;;6.55;4.45;;;;;;;17.57;55.22;100160.16;10419827;28;20057;-73
2022/10/05 10:52:55;;;;;;;6.25;4.50;;;;;;;17.75;54.96;100154.16;10418973;28;20060;-73
2022/10/05 10:58:33;;;;;;;6.78;4.65;;;;;;;17.58;54.48;100157.41;10418982;28;20049;-74
2022/10/05 11:04:12;;;;;;;5.88;4.47;;;;;;;17.55;55.03;100154.19;10418007;28;20061;-74
2022/10/05 11:09:24;;;;;;;6.60;4.40;;;;;;;17.62;54.64;100148.25;10419739;28;20060;-73
2022/10/05 11:14:44;;;;;;;5.35;4.00;;;;;;;17.65;54.32;100133.91;10397416;28;21055;-75
2022/10/05 11:19:55;;;;;;;7.23;4.10;;;;;;;17.79;54.51;100129.09;10391557;28;20049;-73
2022/10/05 11:25:36;;;;;;;5.50;4.10;;;;;;;17.99;53.75;100127.41;10389797;28;20049;-73
2022/10/05 11:31:01;;;;;;;6.03;4.05;;;;;;;18.12;53.47;100129.78;10384746;28;20053;-74
2022/10/05 11:36:24;;;;;;;6.60;4.15;;;;;;;18.12;52.87;100116.53;10389280;28;20064;-74
2022/10/05 11:41:44;;;;;;;5.75;3.95;;;;;;;18.13;53.30;100119.09;10389328;28;20053;-74
2022/10/05 11:47:03;;;;;;;6.30;3.47;;;;;;;18.27;53.46;100107.31;10389921;28;20188;-74
2022/10/05 11:52:11;;;;;;;8.00;3.65;;;;;;;18.51;52.91;100105.94;10387623;28;20052;-73
2022/10/05 11:57:18;;;;;;;6.43;3.97;;;;;;;18.70;52.88;100105.13;10389731;28;20567;-74
2022/10/05 12:02:54;;;;;;;5.78;3.90;;;;;;;18.80;52.56;100092.72;10388736;28;20076;-74
2022/10/05 12:08:07;;;;;;;5.93;3.63;;;;;;;19.11;51.57;100085.47;10389131;28;20046;-74
2022/10/05 12:13:52;;;;;;;6.07;3.70;;;;;;;19.36;51.09;100079.53;10388649;28;20060;-74
2022/10/05 12:19:16;;;;;;;5.13;3.42;;;;;;;19.20;51.61;100069.53;10385754;28;20049;-74
2022/10/05 12:24:23;;;;;;;7.65;3.88;;;;;;;19.39;50.94;100076.59;10386987;28;20391;-73
2022/10/05 12:29:52;;;;;;;5.30;3.53;;;;;;;19.46;50.90;100072.38;10374572;28;20067;-74
2022/10/05 12:35:10;;;;;;;5.93;3.30;;;;;;;19.50;51.13;100059.69;10383116;28;20041;-74
2022/10/05 12:40:22;;;;;;;5.25;3.33;;;;;;;19.51;51.09;100058.69;10388034;28;20049;-74
2022/10/05 12:45:42;;;;;;;5.93;3.42;;;;;;;19.48;50.23;100036.78;10387244;28;20072;-74
2022/10/05 12:50:55;;;;;;;6.13;3.30;;;;;;;19.58;50.53;100035.91;10386392;28;20057;-74
2022/10/05 12:56:08;;;;;;;5.20;3.20;;;;;;;19.71;51.19;100039.06;10387215;28;20053;-74
2022/10/05 13:01:41;;;;;;;6.85;3.30;;;;;;;19.83;50.74;100037.91;10384447;28;20053;-74
2022/10/05 13:07:21;;;;;;;6.68;2.83;;;;;;;19.84;50.28;100029.81;10359507;28;20115;-74
2022/10/05 13:12:34;;;;;;;5.95;3.00;;;;;;;19.99;50.34;100023.00;10386099;28;20658;-74
2022/10/05 13:17:48;;;;;;;4.55;2.80;;;;;;;20.04;50.28;100014.59;10386035;28;20490;-74
2022/10/05 13:23:13;;;;;;;4.68;2.60;;;;;;;20.18;50.54;100019.38;10386857;28;20060;-74
2022/10/05 13:28:21;;;;;;;6.43;3.00;;;;;;;20.09;49.84;100007.03;10383331;28;20064;-75
2022/10/05 13:33:32;;;;;;;8.30;2.78;;;;;;;20.19;49.64;99994.53;10384829;28;20057;-74
2022/10/05 13:39:12;;;;;;;6.78;2.83;;;;;;;20.13;48.90;99989.81;10385572;28;20103;-74
2022/10/05 13:44:34;;;;;;;4.22;2.92;;;;;;;20.22;48.92;99984.41;10384523;28;20067;-74
2022/10/05 13:50:01;;;;;;;5.68;2.75;;;;;;;20.29;48.27;99995.28;10385285;28;20053;-74
2022/10/05 13:55:18;;;;;;;5.10;2.97;;;;;;;20.30;47.59;99986.31;10383601;28;20391;-75
2022/10/05 14:00:21;;;;;;;6.90;2.95;;;;;;;20.17;48.22;99991.19;10382981;28;20498;-74
2022/10/05 14:05:29;;;;;;;4.72;3.15;;;;;;;20.15;47.67;99975.38;10383087;28;20072;-74
2022/10/05 14:10:37;;;;;;;5.82;3.10;;;;;;;20.23;47.83;99975.44;10381424;28;20553;-75
2022/10/05 14:15:39;;;;;;;5.47;3.13;;;;;;;20.24;47.82;99955.88;10385034;28;20056;-74
2022/10/05 14:21:00;;;;;;;4.85;3.15;;;;;;;20.22;47.01;99957.03;10384504;28;20524;-75
2022/10/05 14:26:02;;;;;;;5.57;3.40;;;;;;;20.22;47.13;99957.03;10384128;28;20045;-74
2022/10/05 14:31:13;;;;;;;4.75;3.20;;;;;;;20.12;47.24;99951.78;10368781;28;20398;-75
2022/10/05 14:36:33;;;;;;;10.98;3.13;;;;;;;20.02;45.92;99944.88;10383039;28;20050;-75
2022/10/05 14:41:36;;;;;;;4.93;3.25;;;;;;;20.09;47.32;99945.97;10384533;28;20635;-75
2022/10/05 14:46:50;;;;;;;9.20;3.47;;;;;;;20.16;47.11;99950.50;10385737;28;20045;-75
2022/10/05 14:51:54;;;;;;;5.50;3.47;;;;;;;20.17;47.54;99943.38;10391526;28;20068;-75
2022/10/05 14:57:05;;;;;;;7.97;3.50;;;;;;;20.12;47.87;99945.66;10391132;28;20058;-76
2022/10/05 15:02:43;;;;;;;5.38;3.50;;;;;;;19.84;47.60;99955.50;10388382;28;20054;-75
2022/10/05 15:07:50;;;;;;;5.97;3.72;;;;;;;19.83;48.03;99945.00;10389010;28;20053;-75
2022/10/05 15:12:54;;;;;;;7.10;3.95;;;;;;;19.71;48.65;99946.19;10389181;28;20131;-74
2022/10/05 15:18:14;;;;;;;6.22;3.60;;;;;;;19.67;48.53;99939.50;10387932;28;20045;-73
2022/10/05 15:23:34;;;;;;;6.07;4.18;;;;;;;19.58;49.44;99935.09;10386290;28;20053;-73
2022/10/05 15:28:40;;;;;;;6.13;3.70;;;;;;;19.60;49.52;99939.28;10383776;28;20053;-73
2022/10/05 15:34:11;;;;;;;5.72;3.80;;;;;;;19.45;49.17;99933.63;10383526;28;20567;-74
2022/10/05 15:39:18;;;;;;;5.35;3.85;;;;;;;19.43;49.08;99934.75;10386389;28;20461;-74
2022/10/05 15:44:51;;;;;;;7.40;3.92;;;;;;;19.25;49.22;99934.72;10386422;28;20060;-74
2022/10/05 15:50:20;;;;;;;7.38;4.30;;;;;;;19.26;49.29;99946.13;10386000;28;20057;-74
2022/10/05 15:55:34;;;;;;;5.53;3.80;;;;;;;19.07;49.99;99939.13;10388577;28;20053;-74
2022/10/05 16:00:46;;;;;;;6.93;3.72;;;;;;;18.96;50.41;99936.63;10387070;28;20621;-74
2022/10/05 16:12:00;;;;;;;9.52;3.55;;;;;;;18.72;51.31;99946.88;10370885;28;20595;-74
2022/10/05 16:17:04;;;;;;;5.82;3.60;;;;;;;18.70;52.14;99958.56;10386527;28;20064;-73
2022/10/05 16:22:32;;;;;;;9.02;3.78;;;;;;;18.54;52.59;99959.97;10387194;28;20053;-76
2022/10/05 16:27:33;;;;;;;7.20;3.40;;;;;;;18.47;53.21;99966.84;10388032;28;20445;-74
2022/10/05 16:32:42;;;;;;;7.28;3.28;;;;;;;18.30;53.71;99975.47;10388397;28;20045;-73
2022/10/05 16:37:56;;;;;;;8.57;3.40;;;;;;;18.17;54.10;99984.63;10388004;28;20050;-73
2022/10/05 16:43:19;;;;;;;4.88;2.97;;;;;;;17.93;54.58;99994.78;10384327;28;20155;-73
2022/10/05 16:48:24;;;;;;;6.55;3.20;;;;;;;17.75;55.49;100006.00;10383350;28;20072;-73
2022/10/05 16:53:36;;;;;;;5.65;3.17;;;;;;;17.56;55.80;100005.97;10385854;28;20049;-73
2022/10/05 16:58:44;;;;;;;6.60;3.60;;;;;;;17.35;56.24;100017.56;10383163;28;20056;-73
2022/10/05 17:04:15;;;;;;;7.43;3.10;;;;;;;17.14;57.12;100032.59;10386697;28;20502;-73
2022/10/05 17:09:52;;;;;;;8.15;3.33;;;;;;;16.99;58.06;100030.28;10387714;28;20045;-74
2022/10/05 17:15:08;;;;;;;5.55;3.00;;;;;;;16.85;58.44;100040.34;10387673;28;20497;-74
2022/10/05 17:20:49;;;;;;;6.72;3.10;;;;;;;16.70;58.86;100060.94;10387874;28;20054;-74
2022/10/05 17:26:31;;;;;;;6.43;3.35;;;;;;;16.56;59.22;100065.69;10382803;28;20050;-74
2022/10/05 17:32:08;;;;;;;7.20;3.00;;;;;;;16.37;59.80;100074.22;10381935;28;20053;-74
2022/10/05 17:37:30;;;;;;;5.75;3.40;;;;;;;16.20;60.27;100078.22;10385300;28;20049;-74
2022/10/05 17:42:33;;;;;;;4.97;3.13;;;;;;;16.09;60.56;100091.47;10385753;28;20050;-74
2022/10/05 17:47:53;;;;;;;12.43;4.13;;;;;;;15.90;61.20;100100.94;10386770;28;20107;-74
2022/10/05 17:58:57;;;;;;;8.70;4.47;;;;;;;15.70;62.32;100107.78;10384193;28;20057;-73
2022/10/05 18:04:11;;;;;;;9.18;4.13;;;;;;;15.62;62.71;100118.09;10385776;28;20057;-73
2022/10/05 18:09:12;;;;;;;10.52;4.80;;;;;;;15.60;62.53;100113.88;10385360;28;20189;-74
2022/10/05 18:14:18;;;;;;;10.65;4.60;;;;;;;15.60;63.05;100116.53;10385641;28;20053;-74
2022/10/05 18:19:21;;;;;;;9.20;4.70;;;;;;;15.58;63.19;100121.06;10383622;28;20067;-74
2022/10/05 18:24:37;;;;;;;10.32;4.57;;;;;;;15.45;63.49;100123.78;10389475;28;20053;-73
2022/10/05 18:30:12;;;;;;;19.02;4.47;;;;;;;15.37;63.67;100124.38;10392014;28;20049;-74
2022/10/05 18:35:32;;;;;;;8.23;4.22;;;;;;;15.33;63.93;100136.09;10392701;28;20062;-73
2022/10/05 18:40:39;;;;;;;10.27;4.20;;;;;;;15.34;63.90;100139.59;10378702;28;20050;-73
2022/10/05 18:46:22;;;;;;;10.82;4.43;;;;;;;15.26;64.09;100149.88;10385738;28;20048;-66
2022/10/05 18:51:34;;;;;;;6.78;4.50;;;;;;;15.30;64.07;100159.22;10391472;28;20551;-66
2022/10/05 18:56:50;;;;;;;10.32;4.70;;;;;;;15.23;64.31;100165.91;10394103;28;20995;-66
2022/10/05 19:02:09;;;;;;;7.95;4.95;;;;;;;15.16;64.41;100168.16;10392138;28;20058;-66
2022/10/05 19:07:47;;;;;;;9.10;5.35;;;;;;;15.07;64.81;100178.53;10388819;28;20057;-66
2022/10/05 19:13:13;;;;;;;11.60;4.93;;;;;;;15.10;64.75;100178.31;10385565;28;20053;-65
2022/10/05 19:18:38;;;;;;;9.60;4.70;;;;;;;15.10;65.11;100189.69;10388208;28;20052;-66
2022/10/05 19:24:09;;;;;;;12.38;4.70;;;;;;;15.07;65.05;100199.63;10388342;28;20057;-66
2022/10/05 19:29:11;;;;;;;;;;;;;;;14.66;65.99;100212.31;10392961;28;20041;-66
2022/10/05 19:34:18;;;;;;;8.52;4.47;;;;;;;15.00;64.94;100219.47;10391149;28;19925;-66
2022/10/05 19:39:49;;;;;;;16.33;4.88;;;;;;;14.91;65.65;100220.97;10391157;28;20344;-66
2022/10/05 19:45:37;;;;;;;15.35;4.78;;;;;;;14.83;65.67;100239.13;10391619;28;20052;-66
2022/10/05 19:50:52;;;;;;;9.73;4.97;;;;;;;14.88;65.54;100238.81;10328104;28;20046;-66
2022/10/05 19:55:54;;;;;;;14.27;5.28;;;;;;;14.80;65.43;100249.06;10383044;28;20390;-66
2022/10/05 20:00:59;;;;;;;13.05;5.68;;;;;;;14.64;65.88;100272.97;10388951;28;20081;-65
2022/10/05 20:06:06;;;;;;;7.75;5.15;;;;;;;14.50;66.31;100279.22;10390025;28;20064;-66
2022/10/05 20:11:10;;;;;;;10.43;4.82;;;;;;;14.39;66.45;100278.28;10390041;28;20045;-65
2022/10/05 20:21:36;;;;;;;7.70;5.90;;;;;;;14.27;66.75;100282.59;10387250;28;20053;-65
2022/10/05 20:27:05;;;;;;;11.38;6.03;;;;;;;14.21;67.10;100280.38;10389163;28;20053;-65
2022/10/05 20:32:13;;;;;;;8.70;5.80;;;;;;;14.11;67.63;100279.34;10386979;28;20045;-66
2022/10/05 20:37:17;;;;;;;10.30;5.43;;;;;;;14.09;67.67;100294.38;10388426;28;20045;-66
2022/10/05 20:42:19;;;;;;;12.38;5.18;;;;;;;14.08;67.44;100303.22;10388259;28;20065;-66
2022/10/05 20:47:21;;;;;;;16.42;5.80;;;;;;;14.03;67.56;100300.06;10386775;28;20053;-65
2022/10/05 20:52:23;;;;;;;10.05;5.38;;;;;;;13.94;67.83;100308.59;10385762;28;20061;-66
2022/10/05 20:57:25;;;;;;;9.48;5.13;;;;;;;13.88;68.09;100306.34;10388352;28;20050;-66
2022/10/05 21:02:27;;;;;;;12.05;4.55;;;;;;;13.82;68.42;100325.16;10386862;28;20080;-65
2022/10/05 21:07:29;;;;;;;8.07;3.28;;;;;;;13.89;68.52;100329.06;10384717;28;20250;-66
2022/10/05 21:12:32;;;;;;;10.38;3.95;;;;;;;14.07;68.15;100332.25;10386959;28;20064;-66
2022/10/05 21:17:36;;;;;;;8.73;4.47;;;;;;;14.02;67.76;100336.97;10384153;28;20052;-67
2022/10/05 21:22:38;;;;;;;8.75;3.70;;;;;;;13.98;68.39;100340.75;10386740;28;20068;-66
2022/10/05 21:27:40;;;;;;;5.45;3.00;;;;;;;14.11;68.45;100344.25;10386478;28;20053;-66
2022/10/05 21:32:41;;;;;;;7.78;3.13;;;;;;;14.32;67.88;100356.78;10386274;28;20064;-65
2022/10/05 21:37:45;;;;;;;9.90;3.58;;;;;;;14.47;67.82;100358.34;10386052;28;20085;-65
2022/10/05 21:42:46;;;;;;;11.40;3.40;;;;;;;14.65;67.57;100347.53;10384501;28;20413;-66
2022/10/05 21:47:48;;;;;;;12.32;4.32;;;;;;;14.82;67.21;100357.75;10384480;28;20582;-65
2022/10/05 21:52:50;;;;;;;8.48;3.90;;;;;;;14.94;66.88;100370.03;10384816;28;20045;-65
2022/10/05 21:57:55;;;;;;;10.30;3.20;;;;;;;14.94;66.80;100370.03;10383950;28;20053;-66
2022/10/05 22:02:57;;;;;;;12.98;3.50;;;;;;;15.01;66.39;100364.22;10386021;28;20064;-66
2022/10/05 22:07:59;;;;;;;9.85;3.55;;;;;;;15.10;66.47;100387.25;10385376;28;20452;-65
2022/10/05 22:13:03;;;;;;;9.73;2.80;;;;;;;15.29;65.31;100394.69;10384951;28;20542;-66
2022/10/05 22:18:05;;;;;;;8.90;3.30;;;;;;;15.51;65.07;100397.50;10382209;28;20172;-66
2022/10/05 22:23:06;;;;;;;7.57;2.70;;;;;;;15.55;64.82;100392.88;10383995;28;20050;-66
2022/10/05 22:28:12;;;;;;;6.03;3.20;;;;;;;15.54;64.90;100402.56;10383297;28;20049;-66
2022/10/05 22:33:14;;;;;;;6.55;2.83;;;;;;;15.58;64.04;100406.66;10384906;28;20858;-65
2022/10/05 22:38:15;;;;;;;9.85;2.53;;;;;;;15.67;63.64;100415.69;10384936;28;20497;-66
2022/10/05 22:43:17;;;;;;;9.25;2.97;;;;;;;15.84;63.33;100421.41;10384810;28;20076;-66
2022/10/05 22:48:18;;;;;;;5.95;2.42;;;;;;;15.95;62.72;100416.19;10381203;28;20509;-66
2022/10/05 22:53:20;;;;;;;9.88;2.50;;;;;;;16.05;62.22;100411.91;10385424;28;20073;-65
2022/10/05 22:58:22;;;;;;;6.68;2.55;;;;;;;16.08;62.01;100402.94;10384690;28;20136;-66
2022/10/05 23:03:23;;;;;;;10.23;2.60;;;;;;;16.10;61.91;100416.84;10383992;28;20399;-66
2022/10/05 23:08:25;;;;;;;7.80;2.40;;;;;;;16.17;61.73;100413.63;10386329;28;20489;-66
2022/10/05 23:13:28;;;;;;;7.32;2.63;;;;;;;16.13;61.70;100398.13;10391379;28;20045;-66
2022/10/05 23:18:30;;;;;;;7.95;2.42;;;;;;;16.13;61.49;100406.91;10390774;28;20064;-66
2022/10/05 23:23:35;;;;;;;5.15;2.50;;;;;;;16.13;61.10;100413.97;10390889;28;20049;-66
2022/10/05 23:28:39;;;;;;;7.85;2.42;;;;;;;16.07;61.27;100414.44;10391420;28;20088;-66
2022/10/05 23:33:40;;;;;;;8.75;2.60;;;;;;;15.81;61.39;100424.28;10389858;28;20049;-66
2022/10/05 23:38:43;;;;;;;15.90;2.80;;;;;;;15.66;62.09;100433.31;10390584;28;20045;-66
2022/10/05 23:43:45;;;;;;;8.63;2.90;;;;;;;15.53;62.25;100450.94;10389330;28;20048;-66
2022/10/05 23:48:49;;;;;;;12.25;2.80;;;;;;;15.50;62.50;100445.06;10389857;28;20053;-66
2022/10/05 23:53:50;;;;;;;8.13;2.50;;;;;;;15.49;62.46;100441.56;10389806;28;20061;-65
2022/10/05 23:58:52;;;;;;;8.27;2.70;;;;;;;15.57;62.52;100449.78;10371706;28;20046;-66
